Airfield :
LOGIN :

Register | Disclaimer

   EN    FR    IT 

 










Legend :    VFR   Marginal VFR   IFR   Intensive IFR   Very Intensive IFR
Visi :
Ceiling :
>= 8 km
>= 3000ft
5 to 8 km
1000 to 3000 ft
1500m to 5 km
500 to 1000 ft
800 to 1500m
200 to 500 ft
< 800m
< 200 ft
Symbols :   Thunderstorms  Fog  Heavy snow  Heavy precipitations  Wind > 20 kt
SIGMETs :     Misc.  Thunderstorms  Icing  Turbulence  Mountain Waves  Volcanic Ashes






- Airport Elevation : 1791 ft
- IATA code : AOT


LIMW - Aosta

CURRENT METAR :
  • 290820Z AUTO 10010KT 9999 NCD 18/08 Q1006

EXPIRED METARs :
  • 290750Z AUTO 10010KT 9999 NCD 17/09 Q1006
  • 290720Z AUTO 10008KT 9999 SCT090/// 16/09 Q1007
  • 290650Z AUTO 09008KT 9999 SCT060/// 15/09 Q1007
  • 290620Z AUTO 11008KT 9999 BKN060/// 15/09 Q1007
  • 290550Z AUTO 10007KT 9999 BKN063/// 15/09 Q1017

TAF TAF LIMW
Valid from the 29 at 09:00 until the 29 at 18:00 UTC


290800Z 2909/2918 09012KT 9999 SCT050



MET'MAP, your aeronautical weather chart ! - Copyright ORBIFLY December 2007 - Disclaimer

ORBIFLY MET'MAP TEAM :

Programming & Development : Alexandra Zaïnal
Original concept : Baudouin d'Aumeries
Technical & hardware support : Manuel Goepfert
Assistance : Marc-Olivier Méhu

Contact : metmap@orbifly.com




SOURCES & CREDITS :

   NOAA